Time;durP1;ratioP1;P1;durP2;ratioP2;P2;SDS_P1;SDS_P2;PMS_P1;PMS_P2;Temp;Humidity;BMP_temperature;BMP_pressure;BME280_temperature;BME280_humidity;BME280_pressure;Samples;Min_cycle;Max_cycle;Signal;HPM_P1;HPM_P2
2021/01/17 00:00:38;;;;;;;14.13;10.40;;;;;;;-1.17;94.22;98857.97;4924519;28;102637;-77
2021/01/17 00:03:06;;;;;;;18.33;12.87;;;;;;;-1.14;95.06;98851.84;4926558;28;103141;-78
2021/01/17 00:05:33;;;;;;;15.73;11.13;;;;;;;-1.23;95.21;98845.13;4925515;28;104339;-79
2021/01/17 00:08:05;;;;;;;15.73;11.50;;;;;;;-1.38;95.54;98836.00;4925203;28;112879;-80
2021/01/17 00:10:34;;;;;;;16.13;11.33;;;;;;;-1.34;95.42;98839.34;4925164;28;102656;-78
2021/01/17 00:13:02;;;;;;;13.90;10.07;;;;;;;-1.30;95.92;98833.22;4920191;28;103879;-77
2021/01/17 00:15:29;;;;;;;15.33;10.87;;;;;;;-1.17;95.77;98829.44;4923162;28;105812;-78
2021/01/17 00:17:57;;;;;;;14.33;10.27;;;;;;;-1.08;95.37;98823.19;4925006;28;103930;-77
2021/01/17 00:20:25;;;;;;;14.57;10.33;;;;;;;-1.12;95.53;98804.25;4926054;28;102660;-78
2021/01/17 00:22:54;;;;;;;14.50;10.17;;;;;;;-1.15;95.03;98795.72;4926080;28;102905;-77
2021/01/17 00:25:22;;;;;;;13.80;9.73;;;;;;;-1.04;95.45;98798.91;4933527;28;103103;-77
2021/01/17 00:27:53;;;;;;;13.77;9.33;;;;;;;-1.07;95.67;98794.66;4938690;28;102871;-77
2021/01/17 00:30:22;;;;;;;14.50;10.33;;;;;;;-1.20;95.30;98788.88;4927479;28;103174;-78
2021/01/17 00:32:51;;;;;;;18.60;11.90;;;;;;;-1.23;95.83;98782.91;4925557;28;103132;-77
2021/01/17 00:35:18;;;;;;;17.97;13.23;;;;;;;-1.46;96.85;98785.22;4924333;28;103551;-77
2021/01/17 00:37:50;;;;;;;12.40;8.70;;;;;;;-1.23;97.95;98788.09;4925329;28;103234;-78
2021/01/17 00:40:18;;;;;;;13.83;10.73;;;;;;;-1.26;96.95;98778.66;4924858;28;103828;-78
2021/01/17 00:42:46;;;;;;;19.63;13.43;;;;;;;-1.13;97.08;98783.56;4925781;28;102780;-77
2021/01/17 00:45:14;;;;;;;18.10;13.00;;;;;;;-1.21;96.26;98773.38;4923284;28;103788;-79
2021/01/17 00:47:45;;;;;;;17.27;13.20;;;;;;;-1.52;96.99;98765.47;4916288;28;106347;-77
2021/01/17 00:50:14;;;;;;;16.60;10.73;;;;;;;-1.35;97.83;98763.31;4925195;28;102962;-77
2021/01/17 00:52:42;;;;;;;15.73;11.47;;;;;;;-1.18;98.13;98765.53;4924925;28;102940;-77
2021/01/17 00:55:12;;;;;;;13.23;9.37;;;;;;;-1.11;97.87;98767.06;4924817;28;103871;-78
2021/01/17 00:57:40;;;;;;;17.27;12.27;;;;;;;-1.01;97.97;98760.75;4907606;28;104484;-77
2021/01/17 01:00:12;;;;;;;16.00;11.03;;;;;;;-0.96;97.10;98760.66;4923192;28;103103;-77
2021/01/17 01:02:56;;;;;;;18.40;12.43;;;;;;;-0.93;96.33;98769.22;4915363;28;104041;-77
2021/01/17 01:05:24;;;;;;;15.47;10.47;;;;;;;-0.91;96.22;98756.19;4916715;28;105039;-76
2021/01/17 01:07:52;;;;;;;16.50;11.53;;;;;;;-0.97;96.53;98762.41;4924063;28;104204;-77
2021/01/17 01:10:20;;;;;;;14.83;11.00;;;;;;;-1.03;95.69;98757.34;4893699;28;103141;-77
2021/01/17 01:12:53;;;;;;;13.90;9.97;;;;;;;-1.01;96.15;98747.78;4923993;28;106022;-79
2021/01/17 01:15:20;;;;;;;17.13;10.93;;;;;;;-0.98;96.79;98752.91;4925076;28;109047;-77
2021/01/17 01:17:47;;;;;;;13.83;9.73;;;;;;;-0.91;96.13;98738.91;4923365;28;106006;-77
2021/01/17 01:20:14;;;;;;;15.20;10.23;;;;;;;-0.97;95.49;98744.25;4916315;28;103179;-78
2021/01/17 01:22:42;;;;;;;19.97;13.67;;;;;;;-1.24;96.43;98734.56;4924467;28;103817;-78
2021/01/17 01:25:10;;;;;;;17.90;13.47;;;;;;;-1.31;97.95;98728.66;4921898;28;105126;-77
2021/01/17 01:27:38;;;;;;;19.67;14.13;;;;;;;-1.28;97.49;98727.75;4923215;28;103390;-78
2021/01/17 01:30:07;;;;;;;16.73;11.63;;;;;;;-1.21;97.78;98724.13;4924784;28;103253;-78
2021/01/17 01:32:34;;;;;;;17.53;12.53;;;;;;;-1.11;97.46;98723.00;4924559;28;103162;-79
2021/01/17 01:35:01;;;;;;;19.80;13.63;;;;;;;-1.20;96.53;98725.81;4924664;28;103841;-78
2021/01/17 01:37:28;;;;;;;20.70;14.97;;;;;;;-1.30;97.10;98724.34;4915137;28;106455;-78
2021/01/17 01:39:55;;;;;;;15.27;11.40;;;;;;;-1.18;97.39;98719.69;4924863;28;103217;-78
2021/01/17 01:42:22;;;;;;;19.20;13.37;;;;;;;-1.23;97.07;98721.56;4925488;28;103129;-78
2021/01/17 01:44:50;;;;;;;16.93;13.13;;;;;;;-1.18;97.25;98713.69;4906779;28;112800;-78
2021/01/17 01:47:29;;;;;;;17.90;13.53;;;;;;;-1.45;96.29;98714.34;4924276;28;103836;-77
2021/01/17 01:49:58;;;;;;;19.27;13.63;;;;;;;-1.35;98.08;98711.47;4919064;28;103355;-78
2021/01/17 01:52:26;;;;;;;17.07;12.87;;;;;;;-1.49;98.30;98707.53;4910726;28;102718;-79
2021/01/17 01:54:53;;;;;;;20.00;13.70;;;;;;;-1.41;97.89;98705.63;4914185;28;104564;-78
2021/01/17 01:57:20;;;;;;;20.17;14.20;;;;;;;-1.46;98.15;98702.28;4923879;28;103947;-78
2021/01/17 01:59:47;;;;;;;17.93;13.53;;;;;;;-1.42;97.41;98699.56;4925210;28;102852;-79
2021/01/17 02:02:15;;;;;;;18.67;13.77;;;;;;;-1.36;97.36;98694.25;4920339;28;103449;-79
2021/01/17 02:04:43;;;;;;;21.00;15.03;;;;;;;-1.38;96.66;98700.34;4923935;28;103241;-77
2021/01/17 02:07:33;;;;;;;18.13;13.70;;;;;;;-1.49;97.18;98687.66;4896386;28;105116;-79
2021/01/17 02:10:00;;;;;;;20.13;13.87;;;;;;;-1.41;96.96;98690.91;4871944;28;102834;-78
2021/01/17 02:12:31;;;;;;;17.43;13.70;;;;;;;-1.43;97.60;98692.69;4924321;28;103044;-77
2021/01/17 02:15:02;;;;;;;20.20;13.23;;;;;;;-1.41;97.66;98690.06;4912089;28;104693;-77
2021/01/17 02:17:32;;;;;;;19.03;13.63;;;;;;;-1.44;97.36;98685.81;4923610;28;103842;-78
2021/01/17 02:20:10;;;;;;;20.77;13.87;;;;;;;-1.47;97.28;98679.84;4924783;28;103246;-78
2021/01/17 02:22:46;;;;;;;18.80;12.80;;;;;;;-1.56;98.35;98680.06;4923236;28;103039;-76
2021/01/17 02:25:15;;;;;;;19.97;14.77;;;;;;;-1.58;98.01;98676.66;4913000;28;105134;-79
2021/01/17 02:27:44;;;;;;;18.90;14.93;;;;;;;-1.67;98.03;98674.28;4922921;28;103867;-77
2021/01/17 02:30:13;;;;;;;20.50;15.07;;;;;;;-1.60;98.51;98674.09;4924469;28;103069;-78
2021/01/17 02:32:44;;;;;;;20.50;15.07;;;;;;;-1.53;98.57;98674.81;4926926;28;104538;-77
2021/01/17 02:35:13;;;;;;;20.00;14.27;;;;;;;-1.46;98.07;98676.38;4927291;28;103843;-78
2021/01/17 02:37:49;;;;;;;19.47;14.13;;;;;;;-1.46;98.05;98673.78;4926537;28;103707;-79
2021/01/17 02:40:31;;;;;;;19.87;14.00;;;;;;;-1.48;97.98;98673.81;4926490;28;102755;-78
2021/01/17 02:43:00;;;;;;;20.67;15.40;;;;;;;-1.55;98.04;98655.88;4926947;28;102924;-78
2021/01/17 02:45:27;;;;;;;16.47;11.07;;;;;;;-1.54;97.95;98662.72;4927558;28;103886;-80
2021/01/17 02:47:54;;;;;;;18.57;12.43;;;;;;;-1.49;97.77;98668.69;4926906;28;103729;-79
2021/01/17 02:50:22;;;;;;;18.87;12.90;;;;;;;-1.48;97.61;98668.63;4926661;28;102707;-78
2021/01/17 02:52:56;;;;;;;20.93;14.97;;;;;;;-1.45;96.99;98667.69;4927058;28;103131;-78
2021/01/17 02:55:24;;;;;;;16.27;10.97;;;;;;;-1.46;96.57;98673.78;4915173;28;103782;-78
2021/01/17 02:57:55;;;;;;;19.63;14.30;;;;;;;-1.36;96.93;98672.66;4927441;28;103246;-77
2021/01/17 03:00:25;;;;;;;22.43;14.77;;;;;;;-1.40;96.31;98671.00;4926291;28;102994;-78
2021/01/17 03:02:56;;;;;;;20.53;14.63;;;;;;;-1.50;97.20;98679.91;4922009;28;104145;-77
2021/01/17 03:05:25;;;;;;;23.03;16.03;;;;;;;-1.63;97.89;98675.94;4925860;28;104062;-78
2021/01/17 03:07:54;;;;;;;18.20;12.47;;;;;;;-1.51;97.86;98673.03;4926357;28;103321;-76
2021/01/17 03:10:23;;;;;;;18.60;13.33;;;;;;;-1.45;97.63;98676.31;4926843;28;103228;-80
2021/01/17 03:12:52;;;;;;;22.10;16.03;;;;;;;-1.61;98.63;98666.38;4925115;28;104945;-78
2021/01/17 03:15:20;;;;;;;17.33;12.17;;;;;;;-1.54;98.33;98667.91;4905719;28;106127;-79
2021/01/17 03:17:47;;;;;;;23.60;15.80;;;;;;;-1.40;98.03;98671.00;4922914;28;105250;-78
2021/01/17 03:20:14;;;;;;;21.70;16.07;;;;;;;-1.40;97.22;98671.00;4926841;28;103182;-78
2021/01/17 03:22:41;;;;;;;22.20;15.87;;;;;;;-1.41;97.05;98664.16;4925112;28;103455;-78
2021/01/17 03:25:09;;;;;;;19.10;15.03;;;;;;;-1.36;97.67;98651.91;4925347;28;105253;-77
2021/01/17 03:27:36;;;;;;;21.23;15.07;;;;;;;-1.43;96.95;98660.75;4925758;28;103694;-78
2021/01/17 03:30:05;;;;;;;21.93;16.40;;;;;;;-1.45;97.48;98654.72;4925408;28;104179;-78
2021/01/17 03:32:32;;;;;;;21.97;16.20;;;;;;;-1.35;97.73;98649.28;4925925;28;104108;-76
2021/01/17 03:34:59;;;;;;;17.20;11.97;;;;;;;-1.30;96.93;98641.41;4924894;28;106597;-77
2021/01/17 03:37:27;;;;;;;24.20;16.43;;;;;;;-1.42;97.04;98641.69;4926708;28;103792;-78
2021/01/17 03:39:54;;;;;;;19.60;14.17;;;;;;;-1.42;97.75;98632.19;4926644;28;103105;-78
2021/01/17 03:42:21;;;;;;;22.60;16.57;;;;;;;-1.41;97.04;98633.03;4926099;28;103294;-79
2021/01/17 03:44:48;;;;;;;21.10;14.23;;;;;;;-1.45;97.27;98634.84;4909104;28;105008;-77
2021/01/17 03:47:16;;;;;;;23.40;16.90;;;;;;;-1.45;97.31;98626.22;4913050;28;103285;-77
2021/01/17 03:49:44;;;;;;;23.23;15.60;;;;;;;-1.49;97.42;98624.63;4927598;28;103180;-79
2021/01/17 03:52:11;;;;;;;20.23;14.47;;;;;;;-1.36;97.64;98636.38;4925952;28;102742;-78
2021/01/17 03:54:39;;;;;;;18.40;12.37;;;;;;;-1.30;96.64;98631.03;4923286;28;105370;-78
2021/01/17 03:57:06;;;;;;;25.03;18.13;;;;;;;-1.35;97.43;98627.72;4913273;28;105460;-78
2021/01/17 03:59:33;;;;;;;19.57;13.53;;;;;;;-1.28;97.60;98634.41;4926652;28;103145;-78
2021/01/17 04:02:00;;;;;;;19.60;13.73;;;;;;;-1.20;96.73;98632.47;4924474;28;102963;-79
2021/01/17 04:04:28;;;;;;;20.23;13.20;;;;;;;-1.15;96.44;98640.16;4926112;28;103877;-78
2021/01/17 04:06:55;;;;;;;22.73;16.87;;;;;;;-1.23;95.47;98638.59;4924432;28;103039;-78
2021/01/17 04:09:22;;;;;;;24.93;17.33;;;;;;;-1.17;96.56;98637.59;4923485;28;102789;-78
2021/01/17 04:11:49;;;;;;;22.17;14.50;;;;;;;-1.16;95.61;98636.72;4925890;28;103202;-78
2021/01/17 04:14:17;;;;;;;21.77;15.37;;;;;;;-1.17;95.77;98637.59;4925007;28;104546;-78
2021/01/17 04:16:49;;;;;;;23.23;16.30;;;;;;;-1.22;97.10;98634.28;4923399;28;103699;-78
2021/01/17 04:19:16;;;;;;;23.77;16.40;;;;;;;-1.21;97.23;98638.56;4924376;28;102683;-80
2021/01/17 04:21:44;;;;;;;20.50;14.63;;;;;;;-1.20;97.51;98632.47;4925750;28;103207;-77
2021/01/17 04:24:11;;;;;;;24.17;16.83;;;;;;;-1.33;97.75;98637.16;4922454;28;104135;-78
2021/01/17 04:26:38;;;;;;;23.60;16.33;;;;;;;-1.26;98.02;98632.63;4925051;28;104856;-78
2021/01/17 04:29:05;;;;;;;23.10;15.77;;;;;;;-1.18;98.45;98635.91;4923728;28;103357;-78
2021/01/17 04:31:40;;;;;;;18.47;13.27;;;;;;;-1.12;97.27;98643.50;4923433;28;103258;-78
2021/01/17 04:34:07;;;;;;;23.43;17.03;;;;;;;-1.04;98.00;98641.56;4925643;28;104158;-78
2021/01/17 04:36:34;;;;;;;25.07;17.37;;;;;;;-1.15;97.17;98646.16;4924523;28;104242;-79
2021/01/17 04:39:03;;;;;;;25.83;18.47;;;;;;;-1.18;97.50;98646.28;4922489;28;103301;-79
2021/01/17 04:41:31;;;;;;;21.70;15.30;;;;;;;-1.23;97.85;98648.09;4925257;28;102786;-78
2021/01/17 04:43:59;;;;;;;25.47;17.07;;;;;;;-1.20;97.48;98645.44;4921089;28;103841;-78
2021/01/17 04:46:27;;;;;;;21.93;14.77;;;;;;;-1.12;97.39;98646.09;4924332;28;105096;-78
2021/01/17 04:48:59;;;;;;;20.50;14.13;;;;;;;-1.09;96.95;98650.34;4924690;28;103058;-78
2021/01/17 04:51:28;;;;;;;21.13;15.57;;;;;;;-1.05;96.94;98658.00;4922623;28;103104;-79
2021/01/17 04:53:55;;;;;;;23.37;14.80;;;;;;;-1.04;96.55;98658.88;4922313;28;104119;-78
2021/01/17 04:56:26;;;;;;;17.63;12.83;;;;;;;-0.98;96.99;98669.09;4920087;28;106433;-78
2021/01/17 04:59:11;;;;;;;24.03;17.83;;;;;;;-1.18;96.95;98665.25;4924687;28;103117;-78
2021/01/17 05:01:50;;;;;;;19.90;14.53;;;;;;;-1.10;98.03;98662.47;4927532;28;102952;-79
2021/01/17 05:04:41;;;;;;;26.43;18.43;;;;;;;-1.25;98.32;98660.28;4925991;28;104354;-76
2021/01/17 05:07:16;;;;;;;19.90;13.13;;;;;;;-1.10;98.25;98664.22;4922326;28;105010;-78
2021/01/17 05:09:50;;;;;;;19.63;12.97;;;;;;;-0.98;98.17;98664.72;4906312;28;103248;-77
2021/01/17 05:12:25;;;;;;;21.03;14.27;;;;;;;-1.04;97.80;98664.91;4922813;28;103710;-78
2021/01/17 05:14:56;;;;;;;16.63;11.63;;;;;;;-0.95;97.71;98664.66;4923758;28;103983;-78
2021/01/17 05:17:24;;;;;;;25.90;17.77;;;;;;;-1.10;97.60;98664.22;4924209;28;103932;-78
2021/01/17 05:19:51;;;;;;;20.07;14.23;;;;;;;-1.04;97.18;98664.91;4916472;28;103618;-78
2021/01/17 05:22:20;;;;;;;24.90;17.70;;;;;;;-1.19;97.43;98662.72;4924968;28;102983;-78
2021/01/17 05:24:53;;;;;;;23.37;17.10;;;;;;;-1.14;97.06;98666.03;4923508;28;104221;-78
2021/01/17 05:27:21;;;;;;;22.73;15.63;;;;;;;-1.09;97.89;98666.75;4924772;28;103729;-78
2021/01/17 05:29:48;;;;;;;22.27;15.03;;;;;;;-1.10;96.98;98670.25;4919559;28;103208;-79
2021/01/17 05:32:16;;;;;;;17.67;12.50;;;;;;;-0.97;97.73;98671.63;4922140;28;102910;-78
2021/01/17 05:34:43;;;;;;;20.33;14.80;;;;;;;-0.95;97.27;98668.97;4922916;28;105319;-78
2021/01/17 05:37:12;;;;;;;24.83;16.67;;;;;;;-0.98;97.19;98677.69;4924661;28;103697;-79
2021/01/17 05:40:00;;;;;;;21.57;15.20;;;;;;;-0.90;97.20;98680.09;4924582;28;102921;-78
2021/01/17 05:42:29;;;;;;;20.13;13.13;;;;;;;-0.92;97.39;98682.72;4907248;28;102745;-79
2021/01/17 05:44:58;;;;;;;25.40;16.83;;;;;;;-0.89;96.89;98682.63;4923184;28;111515;-79
2021/01/17 05:47:26;;;;;;;22.50;14.80;;;;;;;-0.96;97.25;98683.72;4922966;28;103816;-78
2021/01/17 05:50:06;;;;;;;23.27;16.37;;;;;;;-0.87;98.15;98695.59;4924956;28;103071;-78
2021/01/17 05:52:34;;;;;;;20.83;14.60;;;;;;;-0.88;97.88;98689.53;4919036;28;102910;-77
2021/01/17 05:55:03;;;;;;;20.33;14.00;;;;;;;-0.86;98.04;98694.66;4923565;28;104186;-76
2021/01/17 05:57:32;;;;;;;23.30;14.80;;;;;;;-0.93;99.01;98690.56;4923068;28;112237;-77
2021/01/17 06:00:00;;;;;;;18.87;13.63;;;;;;;-0.80;99.09;98685.00;4922618;28;102611;-78
2021/01/17 06:02:28;;;;;;;22.60;14.57;;;;;;;-0.70;98.44;98701.13;4924011;28;102732;-77
2021/01/17 06:04:56;;;;;;;23.43;15.70;;;;;;;-0.83;98.83;98687.66;4921655;28;103789;-79
2021/01/17 06:07:25;;;;;;;25.30;17.67;;;;;;;-0.79;98.28;98691.03;4919282;28;107588;-79
2021/01/17 06:10:00;;;;;;;28.47;19.20;;;;;;;-0.88;98.74;98692.13;4921635;28;103002;-84
2021/01/17 06:12:32;;;;;;;27.87;18.83;;;;;;;-0.87;98.69;98693.81;4922665;28;104034;-86
2021/01/17 06:15:05;;;;;;;28.07;20.10;;;;;;;-0.93;98.90;98688.81;4925732;28;103055;-81
2021/01/17 06:17:34;;;;;;;28.53;19.77;;;;;;;-1.03;99.59;98691.66;4897858;28;111347;-77
2021/01/17 06:20:02;;;;;;;30.50;19.87;;;;;;;-0.99;98.98;98682.94;4926599;28;103002;-83
2021/01/17 06:22:30;;;;;;;26.37;17.67;;;;;;;-1.07;100.00;98690.91;4926123;28;103069;-79
2021/01/17 06:24:59;;;;;;;26.13;17.50;;;;;;;-0.95;99.91;98685.38;4920538;28;103953;-77
2021/01/17 06:27:28;;;;;;;27.80;18.57;;;;;;;-0.95;99.80;98689.72;4918546;28;105241;-76
2021/01/17 06:29:56;;;;;;;27.30;18.30;;;;;;;-1.02;100.00;98689.06;4927116;28;102937;-85
2021/01/17 06:32:25;;;;;;;28.73;19.67;;;;;;;-1.12;99.69;98684.97;4915876;28;103306;-81
2021/01/17 06:34:53;;;;;;;30.50;19.83;;;;;;;-1.13;100.00;98685.03;4928274;28;103162;-89
2021/01/17 06:37:22;;;;;;;28.10;18.27;;;;;;;-1.02;100.00;98688.19;4928829;28;103438;-86
2021/01/17 06:39:52;;;;;;;26.63;18.80;;;;;;;-1.11;99.73;98689.28;4929807;28;103057;-86
2021/01/17 06:42:21;;;;;;;30.40;20.27;;;;;;;-1.08;99.65;98688.34;4921497;28;102996;-86
2021/01/17 06:44:49;;;;;;;31.53;19.73;;;;;;;-1.01;100.00;98690.72;4926214;28;103360;-80
2021/01/17 06:47:21;;;;;;;29.83;20.67;;;;;;;-1.17;99.93;98694.63;4927129;28;104130;-82
2021/01/17 06:49:50;;;;;;;32.50;20.83;;;;;;;-1.25;100.00;98699.16;4914720;28;102912;-81
2021/01/17 06:52:17;;;;;;;30.00;20.23;;;;;;;-1.21;100.00;98687.84;4918579;28;102832;-81
2021/01/17 06:54:46;;;;;;;28.30;20.40;;;;;;;-1.17;100.00;98694.63;4926564;28;104018;-80
2021/01/17 06:57:13;;;;;;;30.27;20.13;;;;;;;-1.04;100.00;98693.44;4926064;28;104061;-78
2021/01/17 06:59:42;;;;;;;28.23;18.30;;;;;;;-0.96;99.84;98688.91;4914342;28;102653;-80
2021/01/17 07:02:38;;;;;;;24.10;16.83;;;;;;;-0.86;99.77;98679.97;4922864;28;104272;-84
2021/01/17 07:05:43;;;;;;;31.97;19.63;;;;;;;-0.86;99.18;98690.34;4923504;28;112925;-83
2021/01/17 07:08:55;;;;;;;26.73;18.40;;;;;;;-0.93;99.12;98694.00;4894608;28;106117;-78
2021/01/17 07:11:55;;;;;;;28.00;19.13;;;;;;;-0.91;99.71;98696.53;4830509;29;104206;-80
2021/01/17 07:14:29;;;;;;;30.27;19.03;;;;;;;-1.04;100.00;98700.34;4933870;28;102654;-81
2021/01/17 07:16:58;;;;;;;29.27;19.40;;;;;;;-0.95;99.83;98700.94;4921171;28;107095;-82
2021/01/17 07:19:32;;;;;;;31.27;20.50;;;;;;;-1.00;99.89;98702.81;4925347;28;103798;-80
2021/01/17 07:22:05;;;;;;;31.17;20.13;;;;;;;-0.90;100.00;98704.28;4910114;28;103551;-86
2021/01/17 07:24:33;;;;;;;26.50;17.17;;;;;;;-0.83;99.86;98704.97;4925571;28;102901;-84
2021/01/17 07:27:20;;;;;;;30.13;20.83;;;;;;;-0.86;99.56;98707.63;4918958;28;104340;-82
2021/01/17 07:29:51;;;;;;;23.93;15.27;;;;;;;-0.73;99.52;98711.63;4922924;28;103965;-84
2021/01/17 07:32:31;;;;;;;30.03;19.10;;;;;;;-0.73;99.08;98714.22;4902664;28;103314;-84
2021/01/17 07:35:06;;;;;;;22.17;16.10;;;;;;;-0.61;99.56;98712.13;4923898;28;103191;-84
2021/01/17 07:37:34;;;;;;;28.73;20.00;;;;;;;-0.65;100.00;98720.06;4925520;28;105065;-84
2021/01/17 07:40:08;;;;;;;22.97;15.20;;;;;;;-0.55;99.81;98712.84;4926602;28;103945;-88
2021/01/17 07:42:37;;;;;;;30.20;19.90;;;;;;;-0.60;99.14;98723.38;4924696;28;103014;-88
2021/01/17 07:45:19;;;;;;;30.70;19.80;;;;;;;-0.72;99.91;98723.69;4925621;28;103041;-87
2021/01/17 07:47:46;;;;;;;28.70;18.83;;;;;;;-0.70;99.91;98727.94;4936053;28;105193;-88
2021/01/17 07:50:15;;;;;;;28.00;17.77;;;;;;;-0.60;99.56;98729.41;4927272;28;103716;-88
2021/01/17 07:52:49;;;;;;;29.83;20.90;;;;;;;-0.56;99.63;98729.34;4921324;28;102974;-83
2021/01/17 07:55:21;;;;;;;27.03;18.20;;;;;;;-0.60;99.58;98734.59;4926104;28;102593;-81
2021/01/17 07:57:52;;;;;;;31.40;20.57;;;;;;;-0.63;99.56;98739.88;4912049;28;106276;-87
2021/01/17 08:00:25;;;;;;;29.03;21.00;;;;;;;-0.57;99.15;98746.66;4919706;28;103880;-80
2021/01/17 08:02:52;;;;;;;26.03;17.43;;;;;;;-0.36;99.25;98747.78;4917340;28;103107;-78
2021/01/17 08:05:51;;;;;;;27.87;18.30;;;;;;;-0.36;98.21;98753.81;4921038;28;103232;-78
2021/01/17 08:08:49;;;;;;;27.47;19.03;;;;;;;-0.35;98.43;98747.75;4923260;28;104529;-77
2021/01/17 08:11:45;;;;;;;29.13;19.90;;;;;;;-0.39;97.72;98748.72;4923610;28;106509;-78
2021/01/17 08:14:24;;;;;;;32.70;20.13;;;;;;;-0.48;99.13;98753.34;4923638;28;102597;-78
2021/01/17 08:17:03;;;;;;;34.50;22.30;;;;;;;-0.43;99.57;98761.84;4923521;28;103291;-78
2021/01/17 08:19:41;;;;;;;26.33;18.27;;;;;;;-0.33;99.00;98756.34;4925446;28;103278;-77
2021/01/17 08:22:43;;;;;;;26.90;18.27;;;;;;;-0.28;98.37;98761.44;4924491;28;104516;-78
2021/01/17 08:25:14;;;;;;;31.60;21.20;;;;;;;-0.21;98.81;98757.75;4920413;28;103058;-77
2021/01/17 08:27:43;;;;;;;29.30;20.67;;;;;;;-0.22;98.46;98756.03;4925844;28;103545;-79
2021/01/17 08:30:21;;;;;;;31.73;21.73;;;;;;;-0.31;98.80;98756.31;4924612;28;104089;-79
2021/01/17 08:32:50;;;;;;;30.97;21.90;;;;;;;-0.16;98.39;98750.66;4924053;28;103802;-78
2021/01/17 08:35:36;;;;;;;33.93;22.67;;;;;;;-0.16;98.47;98755.88;4921386;28;103098;-78
2021/01/17 08:38:35;;;;;;;26.13;17.13;;;;;;;0.12;97.94;98764.56;4922948;28;102681;-77
2021/01/17 08:41:04;;;;;;;24.80;17.73;;;;;;;0.29;96.95;98764.06;4923783;28;104002;-78
2021/01/17 08:43:33;;;;;;;21.67;14.57;;;;;;;0.42;96.35;98763.63;4924754;28;104197;-78
2021/01/17 08:46:00;;;;;;;30.27;22.43;;;;;;;0.36;94.69;98769.03;4925029;28;102680;-77
2021/01/17 08:48:31;;;;;;;33.10;22.60;;;;;;;0.32;95.23;98764.81;4925219;28;102842;-78
2021/01/17 08:51:20;;;;;;;26.27;17.77;;;;;;;0.36;95.90;98771.66;4924330;28;104533;-78
2021/01/17 08:53:48;;;;;;;27.87;19.83;;;;;;;0.47;95.40;98769.56;4924639;28;104783;-78
2021/01/17 08:56:21;;;;;;;39.47;24.23;;;;;;;0.27;95.50;98777.13;4924971;28;103197;-77
2021/01/17 08:58:50;;;;;;;30.17;21.43;;;;;;;0.44;95.32;98789.59;4924523;28;103115;-79
2021/01/17 09:01:18;;;;;;;28.23;17.97;;;;;;;0.52;95.18;98788.47;4922318;28;104342;-79
2021/01/17 09:04:06;;;;;;;24.90;16.53;;;;;;;0.58;95.37;98793.47;4915304;28;105445;-77
2021/01/17 09:06:34;;;;;;;30.33;21.73;;;;;;;0.47;94.96;98800.75;4924971;28;103745;-77
2021/01/17 09:09:11;;;;;;;30.50;21.63;;;;;;;0.40;95.44;98795.78;4924614;28;104437;-78
2021/01/17 09:11:40;;;;;;;28.40;19.47;;;;;;;0.56;95.42;98804.84;4923133;28;103790;-78
2021/01/17 09:14:20;;;;;;;29.03;20.37;;;;;;;0.48;95.73;98802.44;4923430;28;104198;-79
2021/01/17 09:16:49;;;;;;;28.97;20.07;;;;;;;0.71;95.38;98803.47;4923932;28;103236;-78
2021/01/17 09:19:18;;;;;;;30.00;21.57;;;;;;;0.74;94.56;98806.00;4925522;28;102875;-75
2021/01/17 09:21:49;;;;;;;32.30;21.13;;;;;;;0.81;94.12;98815.31;4923539;28;104192;-75
2021/01/17 09:24:17;;;;;;;31.10;22.50;;;;;;;0.55;94.74;98809.19;4929457;28;111399;-75
2021/01/17 09:26:47;;;;;;;29.80;22.07;;;;;;;0.62;95.22;98809.00;4932123;28;103975;-76
2021/01/17 09:29:35;;;;;;;30.03;21.10;;;;;;;0.58;95.70;98824.69;4922812;28;103289;-75
2021/01/17 09:32:09;;;;;;;30.27;22.27;;;;;;;0.70;95.69;98818.25;4910138;28;104482;-75
2021/01/17 09:34:38;;;;;;;32.40;22.73;;;;;;;0.64;95.36;98820.19;4923344;28;104911;-75
2021/01/17 09:37:11;;;;;;;34.60;24.17;;;;;;;0.56;95.49;98831.66;4923372;28;104290;-75
2021/01/17 09:39:41;;;;;;;30.17;21.70;;;;;;;0.71;95.76;98819.09;4925368;28;103128;-76
2021/01/17 09:42:12;;;;;;;33.10;22.73;;;;;;;1.03;94.33;98826.75;4926787;28;104331;-75
2021/01/17 09:44:40;;;;;;;33.80;22.67;;;;;;;0.84;93.96;98830.84;4927753;28;103873;-75
2021/01/17 09:47:16;;;;;;;24.97;18.17;;;;;;;1.07;94.83;98826.59;4925620;28;102864;-77
2021/01/17 09:49:43;;;;;;;31.67;21.90;;;;;;;0.94;93.70;98838.28;4924148;28;103363;-75
2021/01/17 09:52:15;;;;;;;29.57;21.60;;;;;;;1.07;93.95;98834.38;4924042;28;104933;-75
2021/01/17 09:54:42;;;;;;;31.90;23.27;;;;;;;0.97;94.34;98840.81;4925118;28;104160;-76
2021/01/17 09:57:15;;;;;;;28.53;21.03;;;;;;;1.04;94.51;98841.44;4927212;28;103958;-75
2021/01/17 09:59:42;;;;;;;28.20;19.97;;;;;;;1.13;93.83;98830.75;4928140;28;103061;-76
2021/01/17 10:02:10;;;;;;;29.47;21.07;;;;;;;1.10;94.72;98833.44;4922770;28;103798;-76
2021/01/17 10:04:40;;;;;;;31.47;22.23;;;;;;;1.21;93.71;98836.53;4925720;28;104389;-75
2021/01/17 10:07:14;;;;;;;27.97;19.77;;;;;;;1.35;94.30;98839.53;4925367;28;103094;-76
2021/01/17 10:09:41;;;;;;;35.73;24.10;;;;;;;1.18;94.32;98842.69;4927825;28;103016;-75
2021/01/17 10:12:09;;;;;;;34.57;24.40;;;;;;;1.15;94.43;98837.59;4927205;28;103937;-76
2021/01/17 10:14:37;;;;;;;32.43;23.77;;;;;;;1.34;94.23;98837.00;4921057;28;103958;-75
2021/01/17 10:17:06;;;;;;;31.57;22.93;;;;;;;1.47;93.80;98839.16;4923401;28;102923;-75
2021/01/17 10:19:35;;;;;;;36.87;24.87;;;;;;;1.49;93.43;98846.88;4926997;28;102778;-75
2021/01/17 10:22:03;;;;;;;31.70;21.23;;;;;;;1.61;93.26;98842.13;4927234;28;105374;-78
2021/01/17 10:24:32;;;;;;;29.53;21.13;;;;;;;1.77;92.44;98837.22;4924488;28;104212;-75
2021/01/17 10:27:01;;;;;;;28.47;21.97;;;;;;;1.86;91.29;98841.28;4924641;28;102960;-76
2021/01/17 10:29:31;;;;;;;32.03;24.20;;;;;;;1.55;92.60;98846.69;4912339;28;102823;-76
2021/01/17 10:32:02;;;;;;;25.57;19.27;;;;;;;1.66;93.63;98842.81;4926211;28;105438;-76
2021/01/17 10:34:32;;;;;;;28.23;20.90;;;;;;;1.77;93.06;98837.22;4925485;28;103882;-77
2021/01/17 10:37:02;;;;;;;28.17;20.53;;;;;;;2.02;92.56;98837.25;4916897;28;103191;-76
2021/01/17 10:39:31;;;;;;;31.37;23.20;;;;;;;1.64;92.83;98842.03;4925679;28;102960;-79
2021/01/17 10:42:06;;;;;;;32.47;21.70;;;;;;;1.86;93.54;98843.88;4920075;28;104314;-78
2021/01/17 10:44:41;;;;;;;27.80;19.97;;;;;;;2.02;92.85;98842.47;4923047;28;104817;-77
2021/01/17 10:47:20;;;;;;;24.07;17.33;;;;;;;2.16;92.63;98838.41;4924045;28;103041;-79
2021/01/17 10:49:48;;;;;;;29.17;20.77;;;;;;;2.22;92.17;98840.81;4919193;28;103911;-83
2021/01/17 10:52:22;;;;;;;24.83;18.10;;;;;;;2.32;91.32;98839.59;4923237;28;104027;-81
2021/01/17 10:54:53;;;;;;;26.23;19.00;;;;;;;2.30;90.95;98843.97;4925145;28;104442;-83
2021/01/17 10:57:22;;;;;;;25.10;17.33;;;;;;;2.33;91.31;98837.81;4926400;28;102941;-81
2021/01/17 10:59:55;;;;;;;30.17;21.00;;;;;;;2.10;91.39;98840.41;4925569;28;103121;-83
2021/01/17 11:02:24;;;;;;;28.27;20.27;;;;;;;1.72;93.87;98847.81;4926425;28;104339;-78
2021/01/17 11:04:52;;;;;;;31.63;22.37;;;;;;;1.48;95.54;98851.28;4925357;28;104050;-83
2021/01/17 11:07:26;;;;;;;32.53;23.33;;;;;;;1.66;95.95;98841.97;4920590;28;102874;-80
2021/01/17 11:09:54;;;;;;;26.37;19.63;;;;;;;1.81;95.86;98848.41;4926842;28;102709;-81
2021/01/17 11:12:34;;;;;;;29.53;21.10;;;;;;;1.89;94.28;98852.44;4927499;28;104162;-79
2021/01/17 11:15:13;;;;;;;24.83;18.10;;;;;;;1.99;93.46;98853.00;4926064;28;104288;-76
2021/01/17 11:17:54;;;;;;;25.77;19.23;;;;;;;2.08;93.32;98848.28;4924962;28;103205;-75
2021/01/17 11:20:26;;;;;;;34.60;23.93;;;;;;;1.73;92.81;98854.75;4926148;28;103368;-74
2021/01/17 11:23:00;;;;;;;33.97;25.37;;;;;;;1.31;96.33;98845.78;4918363;28;103944;-74
2021/01/17 11:25:27;;;;;;;35.93;24.90;;;;;;;1.27;96.94;98856.31;4925875;28;104421;-74
2021/01/17 11:27:57;;;;;;;35.03;24.93;;;;;;;1.21;97.34;98857.38;4925187;28;103057;-74
2021/01/17 11:30:26;;;;;;;28.23;19.47;;;;;;;1.52;97.80;98850.25;4925508;28;104702;-74